Terminal Aerodrome Forecast
Issued by NWS Newport/Morehead City, NC

Home | Current Version | Previous Version | Graphics & Text | Print | Product List | Glossary On
Versions: 1 2 3 4 5 6 7 8 9 10 11 12 13 14 15 16 17 18 19 20 21
708
FTUS42 KMHX 210543
TAFEWN
TAF
KEWN 210543Z 2106/2206 19005KT 6SM BR SCT006 BKN035
     FM210800 VRB03KT 3SM BR OVC006
      TEMPO 2110/2112 2SM BR OVC003
     FM211400 20006KT P6SM SCT040=

USA.gov is the U.S. government's official web portal to all federal, state and local government web resources and services.